sensor_id;sensor_type;location;lat;lon;timestamp;temperature;humidity
64869;DHT22;51349;52.424;10.840;2024-03-07T00:00:39;1.60;99.90
64869;DHT22;51349;52.424;10.840;2024-03-07T00:05:40;1.70;99.90
64869;DHT22;51349;52.424;10.840;2024-03-07T00:10:41;1.80;99.90
64869;DHT22;51349;52.424;10.840;2024-03-07T00:15:44;1.90;99.90
64869;DHT22;51349;52.424;10.840;2024-03-07T00:20:45;2.10;99.90
64869;DHT22;51349;52.424;10.840;2024-03-07T00:25:45;2.10;99.90
64869;DHT22;51349;52.424;10.840;2024-03-07T00:30:49;2.20;99.90
64869;DHT22;51349;52.424;10.840;2024-03-07T00:35:50;2.40;99.90
64869;DHT22;51349;52.424;10.840;2024-03-07T00:40:50;2.40;99.90
64869;DHT22;51349;52.424;10.840;2024-03-07T00:45:51;2.40;99.90
64869;DHT22;51349;52.424;10.840;2024-03-07T00:50:51;2.50;99.90
64869;DHT22;51349;52.424;10.840;2024-03-07T00:55:52;2.60;99.90
64869;DHT22;51349;52.424;10.840;2024-03-07T01:00:53;2.60;99.90
64869;DHT22;51349;52.424;10.840;2024-03-07T01:05:54;2.60;99.90
64869;DHT22;51349;52.424;10.840;2024-03-07T01:10:55;2.60;99.90
64869;DHT22;51349;52.424;10.840;2024-03-07T01:15:55;2.70;99.90
64869;DHT22;51349;52.424;10.840;2024-03-07T01:20:56;2.80;99.90
64869;DHT22;51349;52.424;10.840;2024-03-07T01:25:58;2.90;99.90
64869;DHT22;51349;52.424;10.840;2024-03-07T01:30:58;3.00;99.90
64869;DHT22;51349;52.424;10.840;2024-03-07T01:35:59;3.10;99.90
64869;DHT22;51349;52.424;10.840;2024-03-07T01:41:00;3.20;99.90
64869;DHT22;51349;52.424;10.840;2024-03-07T01:46:01;3.20;99.90
64869;DHT22;51349;52.424;10.840;2024-03-07T01:51:02;3.30;99.90
64869;DHT22;51349;52.424;10.840;2024-03-07T01:56:05;3.30;99.90
64869;DHT22;51349;52.424;10.840;2024-03-07T02:01:06;3.40;99.90
64869;DHT22;51349;52.424;10.840;2024-03-07T02:06:07;3.40;99.90
64869;DHT22;51349;52.424;10.840;2024-03-07T02:11:08;3.50;99.90
64869;DHT22;51349;52.424;10.840;2024-03-07T02:16:10;3.60;99.90
64869;DHT22;51349;52.424;10.840;2024-03-07T02:21:10;3.60;99.90
64869;DHT22;51349;52.424;10.840;2024-03-07T02:26:12;3.70;99.90
64869;DHT22;51349;52.424;10.840;2024-03-07T02:31:12;3.70;99.90
64869;DHT22;51349;52.424;10.840;2024-03-07T02:36:13;3.80;99.90
64869;DHT22;51349;52.424;10.840;2024-03-07T02:41:14;3.80;99.90
64869;DHT22;51349;52.424;10.840;2024-03-07T02:46:14;3.80;99.90
64869;DHT22;51349;52.424;10.840;2024-03-07T02:51:16;3.90;99.90
64869;DHT22;51349;52.424;10.840;2024-03-07T02:56:17;3.80;99.90
64869;DHT22;51349;52.424;10.840;2024-03-07T03:01:18;3.90;99.90
64869;DHT22;51349;52.424;10.840;2024-03-07T03:06:18;3.90;99.90
64869;DHT22;51349;52.424;10.840;2024-03-07T03:11:22;3.90;99.90
64869;DHT22;51349;52.424;10.840;2024-03-07T03:16:25;3.90;99.90
64869;DHT22;51349;52.424;10.840;2024-03-07T03:21:26;4.00;99.90
64869;DHT22;51349;52.424;10.840;2024-03-07T03:26:27;4.00;99.90
64869;DHT22;51349;52.424;10.840;2024-03-07T03:31:28;4.00;99.90
64869;DHT22;51349;52.424;10.840;2024-03-07T03:36:29;4.00;99.90
64869;DHT22;51349;52.424;10.840;2024-03-07T03:41:30;4.10;99.90
64869;DHT22;51349;52.424;10.840;2024-03-07T03:46:30;4.10;99.90
64869;DHT22;51349;52.424;10.840;2024-03-07T03:51:31;4.20;99.90
64869;DHT22;51349;52.424;10.840;2024-03-07T03:56:32;4.20;99.90
64869;DHT22;51349;52.424;10.840;2024-03-07T04:01:32;4.30;99.90
64869;DHT22;51349;52.424;10.840;2024-03-07T04:06:33;4.30;99.90
64869;DHT22;51349;52.424;10.840;2024-03-07T04:11:33;4.30;99.90
64869;DHT22;51349;52.424;10.840;2024-03-07T04:16:34;4.30;99.90
64869;DHT22;51349;52.424;10.840;2024-03-07T04:21:35;4.40;99.90
64869;DHT22;51349;52.424;10.840;2024-03-07T04:26:35;4.40;99.90
64869;DHT22;51349;52.424;10.840;2024-03-07T04:31:36;4.40;99.90
64869;DHT22;51349;52.424;10.840;2024-03-07T04:36:37;4.40;99.90
64869;DHT22;51349;52.424;10.840;2024-03-07T04:41:38;4.40;99.90
64869;DHT22;51349;52.424;10.840;2024-03-07T04:46:39;4.50;99.90
64869;DHT22;51349;52.424;10.840;2024-03-07T04:51:42;4.40;99.90
64869;DHT22;51349;52.424;10.840;2024-03-07T04:56:47;4.40;99.90
64869;DHT22;51349;52.424;10.840;2024-03-07T05:01:49;4.40;99.90
64869;DHT22;51349;52.424;10.840;2024-03-07T05:06:50;4.50;99.90
64869;DHT22;51349;52.424;10.840;2024-03-07T05:11:51;4.50;99.90
64869;DHT22;51349;52.424;10.840;2024-03-07T05:16:52;4.50;99.90
64869;DHT22;51349;52.424;10.840;2024-03-07T05:22:09;4.50;99.90
64869;DHT22;51349;52.424;10.840;2024-03-07T05:27:14;4.50;99.90
64869;DHT22;51349;52.424;10.840;2024-03-07T05:32:25;4.50;99.90
64869;DHT22;51349;52.424;10.840;2024-03-07T05:37:26;4.60;99.90
64869;DHT22;51349;52.424;10.840;2024-03-07T05:42:28;4.60;99.90
64869;DHT22;51349;52.424;10.840;2024-03-07T05:47:30;4.60;99.90
64869;DHT22;51349;52.424;10.840;2024-03-07T05:52:31;4.60;99.90
64869;DHT22;51349;52.424;10.840;2024-03-07T05:57:32;4.60;99.90
64869;DHT22;51349;52.424;10.840;2024-03-07T06:02:32;4.60;99.90
64869;DHT22;51349;52.424;10.840;2024-03-07T06:07:33;4.60;99.90
64869;DHT22;51349;52.424;10.840;2024-03-07T06:12:34;4.60;99.90
64869;DHT22;51349;52.424;10.840;2024-03-07T06:17:34;4.60;99.90
64869;DHT22;51349;52.424;10.840;2024-03-07T06:22:37;4.60;99.90
64869;DHT22;51349;52.424;10.840;2024-03-07T06:27:37;4.70;99.90
64869;DHT22;51349;52.424;10.840;2024-03-07T06:32:48;4.60;99.90
64869;DHT22;51349;52.424;10.840;2024-03-07T06:37:48;4.70;99.90
64869;DHT22;51349;52.424;10.840;2024-03-07T06:42:49;4.70;99.90
64869;DHT22;51349;52.424;10.840;2024-03-07T06:47:50;4.70;99.90
64869;DHT22;51349;52.424;10.840;2024-03-07T06:52:52;4.70;99.90
64869;DHT22;51349;52.424;10.840;2024-03-07T06:57:53;4.70;99.90
64869;DHT22;51349;52.424;10.840;2024-03-07T07:02:54;4.80;99.90
64869;DHT22;51349;52.424;10.840;2024-03-07T07:07:55;4.80;99.90
64869;DHT22;51349;52.424;10.840;2024-03-07T07:12:56;4.80;99.90
64869;DHT22;51349;52.424;10.840;2024-03-07T07:17:56;4.80;99.90
64869;DHT22;51349;52.424;10.840;2024-03-07T07:22:57;4.80;99.90
64869;DHT22;51349;52.424;10.840;2024-03-07T07:28:02;4.80;99.90
64869;DHT22;51349;52.424;10.840;2024-03-07T07:33:05;4.90;99.90
64869;DHT22;51349;52.424;10.840;2024-03-07T07:38:05;4.90;99.90
64869;DHT22;51349;52.424;10.840;2024-03-07T07:43:07;4.90;99.90
64869;DHT22;51349;52.424;10.840;2024-03-07T07:48:08;4.90;99.90
64869;DHT22;51349;52.424;10.840;2024-03-07T07:53:09;4.90;99.90
64869;DHT22;51349;52.424;10.840;2024-03-07T07:58:11;4.90;99.90
64869;DHT22;51349;52.424;10.840;2024-03-07T08:03:12;4.90;99.90
64869;DHT22;51349;52.424;10.840;2024-03-07T08:08:15;5.00;99.90
64869;DHT22;51349;52.424;10.840;2024-03-07T08:13:18;4.80;99.90
64869;DHT22;51349;52.424;10.840;2024-03-07T08:18:19;4.80;99.90
64869;DHT22;51349;52.424;10.840;2024-03-07T08:23:20;4.80;99.90
64869;DHT22;51349;52.424;10.840;2024-03-07T08:28:23;4.80;99.90
64869;DHT22;51349;52.424;10.840;2024-03-07T08:33:24;4.80;99.90
64869;DHT22;51349;52.424;10.840;2024-03-07T08:38:26;4.80;99.90
64869;DHT22;51349;52.424;10.840;2024-03-07T08:43:27;4.90;99.90
64869;DHT22;51349;52.424;10.840;2024-03-07T08:48:28;4.90;99.90
64869;DHT22;51349;52.424;10.840;2024-03-07T08:53:28;5.00;99.90
64869;DHT22;51349;52.424;10.840;2024-03-07T08:58:29;5.00;99.90
64869;DHT22;51349;52.424;10.840;2024-03-07T09:03:30;5.20;99.90
64869;DHT22;51349;52.424;10.840;2024-03-07T09:08:30;5.30;99.90
64869;DHT22;51349;52.424;10.840;2024-03-07T09:13:31;5.50;99.90
64869;DHT22;51349;52.424;10.840;2024-03-07T09:18:32;5.60;99.90
64869;DHT22;51349;52.424;10.840;2024-03-07T09:23:33;5.70;99.90
64869;DHT22;51349;52.424;10.840;2024-03-07T09:28:33;5.60;99.90
64869;DHT22;51349;52.424;10.840;2024-03-07T09:33:34;5.80;99.90
64869;DHT22;51349;52.424;10.840;2024-03-07T09:38:35;6.00;99.90
64869;DHT22;51349;52.424;10.840;2024-03-07T09:43:43;6.00;99.90
64869;DHT22;51349;52.424;10.840;2024-03-07T09:48:44;6.20;99.90
64869;DHT22;51349;52.424;10.840;2024-03-07T09:53:47;6.10;99.90
64869;DHT22;51349;52.424;10.840;2024-03-07T09:58:50;6.50;99.90
64869;DHT22;51349;52.424;10.840;2024-03-07T10:03:58;7.40;99.90
64869;DHT22;51349;52.424;10.840;2024-03-07T10:09:04;8.40;99.90
64869;DHT22;51349;52.424;10.840;2024-03-07T10:14:05;7.70;99.90
64869;DHT22;51349;52.424;10.840;2024-03-07T10:19:07;7.20;99.90
64869;DHT22;51349;52.424;10.840;2024-03-07T10:24:10;7.30;99.90
64869;DHT22;51349;52.424;10.840;2024-03-07T10:29:11;7.40;99.90
64869;DHT22;51349;52.424;10.840;2024-03-07T10:34:12;8.20;99.90
64869;DHT22;51349;52.424;10.840;2024-03-07T10:39:12;7.90;99.90
64869;DHT22;51349;52.424;10.840;2024-03-07T10:44:23;7.80;99.90
64869;DHT22;51349;52.424;10.840;2024-03-07T10:49:26;7.80;99.90
64869;DHT22;51349;52.424;10.840;2024-03-07T10:55:39;9.80;99.90
64869;DHT22;51349;52.424;10.840;2024-03-07T11:00:22;9.10;99.90
64869;DHT22;51349;52.424;10.840;2024-03-07T11:05:40;8.50;99.90
64869;DHT22;51349;52.424;10.840;2024-03-07T11:10:44;9.60;99.90
64869;DHT22;51349;52.424;10.840;2024-03-07T11:15:51;10.40;99.90
64869;DHT22;51349;52.424;10.840;2024-03-07T11:20:52;9.80;99.90
64869;DHT22;51349;52.424;10.840;2024-03-07T11:26:14;11.00;99.90
64869;DHT22;51349;52.424;10.840;2024-03-07T11:31:26;10.70;99.90
64869;DHT22;51349;52.424;10.840;2024-03-07T11:36:47;10.60;99.90
64869;DHT22;51349;52.424;10.840;2024-03-07T11:41:50;9.90;99.90
64869;DHT22;51349;52.424;10.840;2024-03-07T11:46:51;9.90;99.90
64869;DHT22;51349;52.424;10.840;2024-03-07T11:51:52;10.20;99.90
64869;DHT22;51349;52.424;10.840;2024-03-07T11:56:53;9.00;99.90
64869;DHT22;51349;52.424;10.840;2024-03-07T12:01:57;8.80;99.90
64869;DHT22;51349;52.424;10.840;2024-03-07T12:07:01;8.90;99.90
64869;DHT22;51349;52.424;10.840;2024-03-07T12:12:04;9.90;99.90
64869;DHT22;51349;52.424;10.840;2024-03-07T12:17:05;9.40;99.90
64869;DHT22;51349;52.424;10.840;2024-03-07T12:22:11;9.70;99.90
64869;DHT22;51349;52.424;10.840;2024-03-07T12:27:16;9.20;99.90
64869;DHT22;51349;52.424;10.840;2024-03-07T12:32:21;10.50;99.90
64869;DHT22;51349;52.424;10.840;2024-03-07T12:37:21;11.60;99.90
64869;DHT22;51349;52.424;10.840;2024-03-07T12:42:27;12.50;99.90
64869;DHT22;51349;52.424;10.840;2024-03-07T12:47:31;12.10;99.90
64869;DHT22;51349;52.424;10.840;2024-03-07T12:52:32;10.60;99.90
64869;DHT22;51349;52.424;10.840;2024-03-07T12:57:33;10.90;99.90
64869;DHT22;51349;52.424;10.840;2024-03-07T13:02:34;13.10;99.90
64869;DHT22;51349;52.424;10.840;2024-03-07T13:07:34;14.40;99.90
64869;DHT22;51349;52.424;10.840;2024-03-07T13:12:35;12.90;97.30
64869;DHT22;51349;52.424;10.840;2024-03-07T13:17:39;12.00;98.40
64869;DHT22;51349;52.424;10.840;2024-03-07T13:22:49;13.50;93.70
64869;DHT22;51349;52.424;10.840;2024-03-07T13:28:10;13.10;94.10
64869;DHT22;51349;52.424;10.840;2024-03-07T13:33:14;10.90;97.50
64869;DHT22;51349;52.424;10.840;2024-03-07T13:38:15;13.40;97.50
64869;DHT22;51349;52.424;10.840;2024-03-07T13:43:19;14.40;95.80
64869;DHT22;51349;52.424;10.840;2024-03-07T13:48:20;13.10;95.10
64869;DHT22;51349;52.424;10.840;2024-03-07T13:53:22;12.20;94.20
64869;DHT22;51349;52.424;10.840;2024-03-07T14:25:21;10.50;97.20
64869;DHT22;51349;52.424;10.840;2024-03-07T14:30:50;10.80;97.30
64869;DHT22;51349;52.424;10.840;2024-03-07T14:36:07;10.50;96.50
64869;DHT22;51349;52.424;10.840;2024-03-07T14:41:11;11.10;97.20
64869;DHT22;51349;52.424;10.840;2024-03-07T14:46:15;10.80;96.80
64869;DHT22;51349;52.424;10.840;2024-03-07T14:51:16;11.10;96.50
64869;DHT22;51349;52.424;10.840;2024-03-07T14:56:19;11.20;96.30
64869;DHT22;51349;52.424;10.840;2024-03-07T15:01:20;10.90;95.70
64869;DHT22;51349;52.424;10.840;2024-03-07T15:12:17;10.60;97.70
64869;DHT22;51349;52.424;10.840;2024-03-07T15:17:18;10.40;96.80
64869;DHT22;51349;52.424;10.840;2024-03-07T15:22:19;10.60;95.70
64869;DHT22;51349;52.424;10.840;2024-03-07T15:27:21;10.90;97.30
64869;DHT22;51349;52.424;10.840;2024-03-07T15:32:22;10.10;94.60
64869;DHT22;51349;52.424;10.840;2024-03-07T15:37:22;9.60;96.80
64869;DHT22;51349;52.424;10.840;2024-03-07T15:42:23;9.20;97.20
64869;DHT22;51349;52.424;10.840;2024-03-07T15:47:25;8.90;96.70
64869;DHT22;51349;52.424;10.840;2024-03-07T15:52:26;8.80;97.20
64869;DHT22;51349;52.424;10.840;2024-03-07T15:57:26;8.60;97.00
64869;DHT22;51349;52.424;10.840;2024-03-07T16:02:27;8.50;97.90
64869;DHT22;51349;52.424;10.840;2024-03-07T16:07:28;8.30;98.80
64869;DHT22;51349;52.424;10.840;2024-03-07T16:12:29;8.20;98.40
64869;DHT22;51349;52.424;10.840;2024-03-07T16:17:33;8.10;97.90
64869;DHT22;51349;52.424;10.840;2024-03-07T16:22:37;7.90;98.70
64869;DHT22;51349;52.424;10.840;2024-03-07T16:27:39;7.80;99.00
64869;DHT22;51349;52.424;10.840;2024-03-07T16:32:44;7.60;99.10
64869;DHT22;51349;52.424;10.840;2024-03-07T16:37:48;7.50;98.60
64869;DHT22;51349;52.424;10.840;2024-03-07T16:42:51;7.30;99.80
64869;DHT22;51349;52.424;10.840;2024-03-07T16:47:58;7.20;99.90
64869;DHT22;51349;52.424;10.840;2024-03-07T16:53:02;7.00;99.90
64869;DHT22;51349;52.424;10.840;2024-03-07T16:58:07;6.80;99.90
64869;DHT22;51349;52.424;10.840;2024-03-07T17:03:13;6.70;99.90
64869;DHT22;51349;52.424;10.840;2024-03-07T17:08:15;6.50;99.90
64869;DHT22;51349;52.424;10.840;2024-03-07T17:13:16;6.40;99.90
64869;DHT22;51349;52.424;10.840;2024-03-07T17:18:17;6.20;99.90
64869;DHT22;51349;52.424;10.840;2024-03-07T17:23:18;6.00;99.90
64869;DHT22;51349;52.424;10.840;2024-03-07T17:28:18;5.80;99.90
64869;DHT22;51349;52.424;10.840;2024-03-07T17:33:21;5.60;99.90
64869;DHT22;51349;52.424;10.840;2024-03-07T17:38:21;5.30;99.90
64869;DHT22;51349;52.424;10.840;2024-03-07T17:43:22;5.00;99.90
64869;DHT22;51349;52.424;10.840;2024-03-07T17:48:23;4.90;99.90
64869;DHT22;51349;52.424;10.840;2024-03-07T17:53:25;4.80;99.90
64869;DHT22;51349;52.424;10.840;2024-03-07T17:58:26;4.60;99.90
64869;DHT22;51349;52.424;10.840;2024-03-07T18:03:27;4.40;99.90
64869;DHT22;51349;52.424;10.840;2024-03-07T18:08:28;4.10;99.90
64869;DHT22;51349;52.424;10.840;2024-03-07T18:13:29;4.00;99.90
64869;DHT22;51349;52.424;10.840;2024-03-07T18:18:31;3.80;99.90
64869;DHT22;51349;52.424;10.840;2024-03-07T18:23:32;3.60;99.90
64869;DHT22;51349;52.424;10.840;2024-03-07T18:28:33;3.60;99.90
64869;DHT22;51349;52.424;10.840;2024-03-07T18:33:36;3.50;99.90
64869;DHT22;51349;52.424;10.840;2024-03-07T18:38:42;3.30;99.90
64869;DHT22;51349;52.424;10.840;2024-03-07T18:43:45;3.20;99.90
64869;DHT22;51349;52.424;10.840;2024-03-07T18:48:46;2.90;99.90
64869;DHT22;51349;52.424;10.840;2024-03-07T18:53:48;2.70;99.90
64869;DHT22;51349;52.424;10.840;2024-03-07T18:58:49;2.60;99.90
64869;DHT22;51349;52.424;10.840;2024-03-07T19:03:50;2.50;99.90
64869;DHT22;51349;52.424;10.840;2024-03-07T19:08:51;2.40;99.90
64869;DHT22;51349;52.424;10.840;2024-03-07T19:13:51;2.40;99.90
64869;DHT22;51349;52.424;10.840;2024-03-07T19:18:53;2.20;99.90
64869;DHT22;51349;52.424;10.840;2024-03-07T19:23:54;2.00;99.90
64869;DHT22;51349;52.424;10.840;2024-03-07T19:28:54;2.00;99.90
64869;DHT22;51349;52.424;10.840;2024-03-07T19:33:56;1.90;99.90
64869;DHT22;51349;52.424;10.840;2024-03-07T19:38:57;1.70;99.90
64869;DHT22;51349;52.424;10.840;2024-03-07T19:43:57;1.60;99.90
64869;DHT22;51349;52.424;10.840;2024-03-07T19:48:58;1.40;99.90
64869;DHT22;51349;52.424;10.840;2024-03-07T19:53:58;1.30;99.90
64869;DHT22;51349;52.424;10.840;2024-03-07T19:58:59;1.30;99.90
64869;DHT22;51349;52.424;10.840;2024-03-07T20:04:00;1.10;99.90
64869;DHT22;51349;52.424;10.840;2024-03-07T20:09:00;1.10;99.90
64869;DHT22;51349;52.424;10.840;2024-03-07T20:14:01;0.90;99.90
64869;DHT22;51349;52.424;10.840;2024-03-07T20:19:02;0.80;99.90
64869;DHT22;51349;52.424;10.840;2024-03-07T20:24:02;0.80;99.90
64869;DHT22;51349;52.424;10.840;2024-03-07T20:29:07;0.70;99.90
64869;DHT22;51349;52.424;10.840;2024-03-07T20:34:09;0.60;99.90
64869;DHT22;51349;52.424;10.840;2024-03-07T20:39:10;0.50;99.90
64869;DHT22;51349;52.424;10.840;2024-03-07T20:44:11;0.40;99.90
64869;DHT22;51349;52.424;10.840;2024-03-07T20:49:12;0.40;99.90
64869;DHT22;51349;52.424;10.840;2024-03-07T20:54:16;0.30;99.90
64869;DHT22;51349;52.424;10.840;2024-03-07T20:59:20;0.30;99.90
64869;DHT22;51349;52.424;10.840;2024-03-07T21:04:21;0.10;99.90
64869;DHT22;51349;52.424;10.840;2024-03-07T21:09:24;0.20;99.90
64869;DHT22;51349;52.424;10.840;2024-03-07T21:14:24;0.00;99.90
64869;DHT22;51349;52.424;10.840;2024-03-07T21:19:25;0.00;99.90
64869;DHT22;51349;52.424;10.840;2024-03-07T21:24:25;-0.10;99.90
64869;DHT22;51349;52.424;10.840;2024-03-07T21:29:26;-0.20;99.90
64869;DHT22;51349;52.424;10.840;2024-03-07T21:34:29;-0.30;99.90
64869;DHT22;51349;52.424;10.840;2024-03-07T21:39:31;-0.30;99.90
64869;DHT22;51349;52.424;10.840;2024-03-07T21:44:32;-0.50;99.90
64869;DHT22;51349;52.424;10.840;2024-03-07T21:49:33;-0.50;99.90
64869;DHT22;51349;52.424;10.840;2024-03-07T21:54:38;-0.50;99.90
64869;DHT22;51349;52.424;10.840;2024-03-07T21:59:39;-0.60;99.90
64869;DHT22;51349;52.424;10.840;2024-03-07T22:04:42;-0.60;99.90
64869;DHT22;51349;52.424;10.840;2024-03-07T22:09:43;-0.70;99.90
64869;DHT22;51349;52.424;10.840;2024-03-07T22:14:44;-0.80;99.90
64869;DHT22;51349;52.424;10.840;2024-03-07T22:19:44;-0.80;99.90
64869;DHT22;51349;52.424;10.840;2024-03-07T22:24:45;-0.80;99.90
64869;DHT22;51349;52.424;10.840;2024-03-07T22:29:46;-0.90;99.90
64869;DHT22;51349;52.424;10.840;2024-03-07T22:34:46;-0.90;99.90
64869;DHT22;51349;52.424;10.840;2024-03-07T22:39:47;-1.10;99.90
64869;DHT22;51349;52.424;10.840;2024-03-07T22:44:48;-1.20;99.90
64869;DHT22;51349;52.424;10.840;2024-03-07T22:49:48;-1.10;99.90
64869;DHT22;51349;52.424;10.840;2024-03-07T22:54:50;-1.20;99.90
64869;DHT22;51349;52.424;10.840;2024-03-07T22:59:50;-1.20;99.90
64869;DHT22;51349;52.424;10.840;2024-03-07T23:10:38;-1.30;99.90
64869;DHT22;51349;52.424;10.840;2024-03-07T23:15:38;-1.30;99.90
64869;DHT22;51349;52.424;10.840;2024-03-07T23:20:39;-1.40;99.90
64869;DHT22;51349;52.424;10.840;2024-03-07T23:25:41;-1.40;99.90
64869;DHT22;51349;52.424;10.840;2024-03-07T23:30:42;-1.40;99.90
64869;DHT22;51349;52.424;10.840;2024-03-07T23:35:43;-1.50;99.90
64869;DHT22;51349;52.424;10.840;2024-03-07T23:40:44;-1.60;99.90
64869;DHT22;51349;52.424;10.840;2024-03-07T23:45:45;-1.60;99.90
64869;DHT22;51349;52.424;10.840;2024-03-07T23:50:48;-1.70;99.90
64869;DHT22;51349;52.424;10.840;2024-03-07T23:55:49;-1.70;99.90
